createdAt,value
2024-04-24T00:01:16.372Z,0.98
2024-04-24T00:03:46.721Z,1.17
2024-04-24T00:06:16.967Z,0.90
2024-04-24T00:08:47.138Z,1.00
2024-04-24T00:11:21.550Z,1.20
2024-04-24T00:13:51.718Z,1.10
2024-04-24T00:16:24.945Z,0.73
2024-04-24T00:18:55.111Z,1.13
2024-04-24T00:21:25.258Z,1.08
2024-04-24T00:23:55.527Z,0.93
2024-04-24T00:26:25.705Z,0.77
2024-04-24T00:28:55.942Z,0.80
2024-04-24T00:31:28.726Z,1.00
2024-04-24T00:33:58.918Z,1.15
2024-04-24T00:36:30.886Z,0.77
2024-04-24T00:39:01.087Z,0.85
2024-04-24T00:41:31.223Z,1.08
2024-04-24T00:44:01.366Z,0.82
2024-04-24T00:46:35.808Z,0.93
2024-04-24T00:49:06.413Z,0.95
2024-04-24T00:51:38.855Z,0.82
2024-04-24T00:54:09.409Z,1.10
2024-04-24T00:56:39.632Z,0.85
2024-04-24T00:59:10.023Z,1.08
2024-04-24T01:01:42.945Z,0.70
2024-04-24T01:04:13.127Z,0.70
2024-04-24T01:06:43.345Z,0.95
2024-04-24T01:09:13.462Z,0.93
2024-04-24T01:11:43.683Z,1.00
2024-04-24T01:14:14.137Z,1.00
2024-04-24T01:16:45.007Z,1.40
2024-04-24T01:19:31.238Z,1.00
2024-04-24T01:22:07.154Z,1.27
2024-04-24T01:24:41.261Z,1.20
2024-04-24T01:27:14.108Z,1.33
2024-04-24T01:29:44.323Z,1.00
2024-04-24T01:32:14.840Z,0.77
2024-04-24T01:34:45.038Z,1.40
2024-04-24T01:37:15.171Z,1.20
2024-04-24T01:39:45.297Z,1.40
2024-04-24T01:42:18.042Z,1.20
2024-04-24T01:44:48.243Z,1.35
2024-04-24T01:47:18.585Z,1.48
2024-04-24T01:49:48.747Z,1.30
2024-04-24T01:52:18.891Z,1.58
2024-04-24T01:54:49.067Z,1.23
2024-04-24T01:57:21.863Z,1.23
2024-04-24T01:59:52.018Z,1.20
2024-04-24T02:02:22.212Z,1.38
2024-04-24T02:04:52.519Z,1.10
2024-04-24T02:07:22.772Z,0.98
2024-04-24T02:09:52.924Z,1.00
2024-04-24T02:12:25.867Z,1.40
2024-04-24T02:14:56.144Z,1.70
2024-04-24T02:17:26.336Z,1.42
2024-04-24T02:19:53.964Z,1.15
2024-04-24T02:22:24.105Z,1.15
2024-04-24T02:25:10.000Z,1.05
2024-04-24T02:30:13.339Z,1.80
2024-04-24T02:32:43.664Z,1.48
2024-04-24T02:35:14.035Z,1.77
2024-04-24T02:37:44.225Z,1.55
2024-04-24T02:40:14.547Z,2.13
2024-04-24T02:42:44.682Z,2.15
2024-04-24T02:45:17.560Z,2.00
2024-04-24T02:47:47.744Z,1.70
2024-04-24T02:50:18.129Z,2.13
2024-04-24T02:52:48.326Z,1.25
2024-04-24T02:55:18.531Z,1.35
2024-04-24T02:57:48.675Z,1.40
2024-04-24T03:00:21.620Z,1.73
2024-04-24T03:02:51.910Z,1.80
2024-04-24T03:05:22.156Z,1.83
2024-04-24T03:07:52.461Z,1.77
2024-04-24T03:10:22.675Z,1.35
2024-04-24T03:12:50.199Z,1.35
2024-04-24T03:15:22.970Z,1.52
2024-04-24T03:17:53.310Z,1.75
2024-04-24T03:20:23.584Z,1.75
2024-04-24T03:22:53.824Z,2.00
2024-04-24T03:25:23.995Z,1.23
2024-04-24T03:27:54.137Z,1.42
2024-04-24T03:30:26.884Z,2.08
2024-04-24T03:32:57.243Z,1.80
2024-04-24T03:35:27.494Z,1.45
2024-04-24T03:37:57.688Z,1.70
2024-04-24T03:40:27.951Z,1.98
2024-04-24T03:42:58.078Z,1.60
2024-04-24T03:45:30.852Z,1.80
2024-04-24T03:48:01.199Z,1.70
2024-04-24T03:50:31.477Z,1.20
2024-04-24T03:53:01.710Z,1.77
2024-04-24T03:55:31.954Z,1.13
2024-04-24T03:58:02.113Z,1.20
2024-04-24T04:00:34.969Z,1.35
2024-04-24T04:03:05.186Z,1.40
2024-04-24T04:05:35.388Z,1.52
2024-04-24T04:08:05.604Z,1.00
2024-04-24T04:10:35.820Z,1.00
2024-04-24T04:13:06.284Z,1.10
2024-04-24T04:15:39.039Z,1.00
2024-04-24T04:18:09.400Z,0.75
2024-04-24T04:20:39.627Z,1.30
2024-04-24T04:23:10.321Z,1.42
2024-04-24T04:25:40.513Z,1.20
2024-04-24T04:28:10.691Z,1.25
2024-04-24T04:30:43.455Z,0.95
2024-04-24T04:33:13.804Z,1.10
2024-04-24T04:35:43.970Z,1.30
2024-04-24T04:38:14.317Z,1.58
2024-04-24T04:40:47.248Z,1.25
2024-04-24T04:43:19.077Z,1.70
2024-04-24T04:45:52.944Z,1.80
2024-04-24T04:48:23.323Z,1.50
2024-04-24T04:50:53.595Z,1.88
2024-04-24T04:53:23.823Z,1.90
2024-04-24T04:55:54.149Z,1.90
2024-04-24T04:58:24.338Z,2.30
2024-04-24T05:00:57.231Z,1.88
2024-04-24T05:03:27.534Z,1.73
2024-04-24T05:05:57.695Z,2.08
2024-04-24T05:08:27.900Z,1.98
2024-04-24T05:10:58.129Z,1.42
2024-04-24T05:13:28.290Z,1.42
2024-04-24T05:16:02.506Z,1.45
2024-04-24T05:18:32.848Z,1.67
2024-04-24T05:21:03.174Z,1.52
2024-04-24T05:23:35.219Z,1.15
2024-04-24T05:26:26.993Z,1.20
2024-04-24T05:29:08.553Z,1.13
2024-04-24T05:31:41.716Z,1.40
2024-04-24T05:34:11.909Z,1.60
2024-04-24T05:36:42.099Z,1.60
2024-04-24T05:39:12.265Z,1.50
2024-04-24T05:41:42.796Z,1.48
2024-04-24T05:44:13.231Z,1.27
2024-04-24T05:46:46.251Z,1.70
2024-04-24T05:49:16.477Z,0.85
2024-04-24T05:51:46.646Z,1.27
2024-04-24T05:54:16.804Z,0.55
2024-04-24T05:56:46.963Z,1.10
2024-04-24T05:59:17.168Z,1.45
2024-04-24T06:01:50.020Z,1.25
2024-04-24T06:04:20.231Z,1.02
2024-04-24T06:06:53.170Z,1.23
2024-04-24T06:09:25.155Z,1.50
2024-04-24T06:11:55.414Z,1.20
2024-04-24T06:14:25.737Z,1.15
2024-04-24T06:16:58.774Z,1.38
2024-04-24T06:19:28.926Z,1.50
2024-04-24T06:21:59.084Z,0.93
2024-04-24T06:24:29.234Z,1.27
2024-04-24T06:26:59.417Z,1.17
2024-04-24T06:29:29.634Z,1.40
2024-04-24T06:32:02.451Z,1.60
2024-04-24T06:34:32.688Z,1.90
2024-04-24T06:37:03.658Z,1.83
2024-04-24T06:39:31.202Z,1.30
2024-04-24T06:42:01.330Z,1.40
2024-04-24T06:44:32.550Z,1.42
2024-04-24T06:47:05.389Z,1.52
2024-04-24T06:49:36.251Z,1.67
2024-04-24T06:52:06.730Z,1.10
2024-04-24T06:54:36.953Z,1.42
2024-04-24T06:57:07.174Z,1.20
2024-04-24T06:59:37.371Z,1.30
2024-04-24T07:02:10.234Z,0.88
2024-04-24T07:04:40.493Z,0.98
2024-04-24T07:07:10.693Z,1.00
2024-04-24T07:09:40.863Z,0.93
2024-04-24T07:12:11.022Z,1.00
2024-04-24T07:14:41.187Z,1.30
2024-04-24T07:17:14.076Z,0.98
2024-04-24T07:19:44.494Z,1.05
2024-04-24T07:22:14.822Z,1.10
2024-04-24T07:24:45.040Z,1.20
2024-04-24T07:27:18.701Z,1.08
2024-04-24T07:29:49.356Z,1.30
2024-04-24T07:32:22.142Z,1.45
2024-04-24T07:34:52.537Z,1.70
2024-04-24T07:37:22.695Z,0.90
2024-04-24T07:39:52.877Z,1.50
2024-04-24T07:42:23.015Z,1.88
2024-04-24T07:44:53.190Z,1.92
2024-04-24T07:47:26.211Z,1.80
2024-04-24T07:49:56.449Z,1.17
2024-04-24T07:52:26.708Z,0.70
2024-04-24T07:54:56.922Z,1.00
2024-04-24T07:57:27.083Z,1.48
2024-04-24T07:59:57.192Z,1.27
2024-04-24T08:02:30.092Z,1.20
2024-04-24T08:05:00.469Z,1.52
2024-04-24T08:07:30.770Z,1.40
2024-04-24T08:10:00.988Z,0.90
2024-04-24T08:12:31.232Z,1.10
2024-04-24T08:15:01.405Z,1.10
2024-04-24T08:17:34.669Z,1.08
2024-04-24T08:20:04.949Z,1.60
2024-04-24T08:22:35.246Z,1.13
2024-04-24T08:25:05.471Z,1.25
2024-04-24T08:27:35.656Z,1.45
2024-04-24T08:30:05.851Z,0.98
2024-04-24T08:32:38.893Z,1.38
2024-04-24T08:35:09.313Z,0.68
2024-04-24T08:37:39.468Z,1.25
2024-04-24T08:40:10.375Z,1.30
2024-04-24T08:42:40.593Z,1.42
2024-04-24T08:45:11.601Z,1.55
2024-04-24T08:47:44.638Z,1.20
2024-04-24T08:50:15.128Z,1.60
2024-04-24T08:52:48.329Z,1.30
2024-04-24T08:55:17.245Z,1.40
2024-04-24T08:57:48.844Z,1.13
2024-04-24T09:00:20.199Z,1.20
2024-04-24T09:02:56.149Z,1.45
2024-04-24T09:05:28.315Z,1.23
2024-04-24T09:07:59.447Z,1.30
2024-04-24T09:10:29.911Z,1.08
2024-04-24T09:13:00.511Z,0.85
2024-04-24T09:15:31.666Z,1.52
2024-04-24T09:18:04.903Z,1.88
2024-04-24T09:20:36.718Z,1.25
2024-04-24T09:23:10.193Z,1.25
2024-04-24T09:25:40.561Z,1.30
2024-04-24T09:28:10.887Z,1.30
2024-04-24T09:30:41.459Z,1.15
2024-04-24T09:33:14.873Z,1.58
2024-04-24T09:35:45.247Z,0.73
2024-04-24T09:38:16.217Z,1.73
2024-04-24T09:40:46.445Z,1.42
2024-04-24T09:43:20.081Z,1.30
2024-04-24T09:45:52.339Z,1.17
2024-04-24T09:48:26.529Z,1.13
2024-04-24T09:50:58.652Z,1.10
2024-04-24T09:53:28.821Z,1.10
2024-04-24T09:56:04.170Z,0.90
2024-04-24T10:01:05.994Z,1.20
2024-04-24T10:03:36.818Z,1.38
2024-04-24T10:06:07.433Z,1.27
2024-04-24T10:08:39.276Z,1.55
2024-04-24T10:11:10.728Z,1.20
2024-04-24T10:13:43.400Z,1.25
2024-04-24T10:16:11.171Z,1.15
2024-04-24T10:18:45.555Z,1.30
2024-04-24T10:21:16.571Z,1.20
2024-04-24T10:23:47.366Z,1.75
2024-04-24T10:26:18.468Z,1.35
2024-04-24T10:28:50.515Z,1.23
2024-04-24T10:31:20.888Z,1.30
2024-04-24T10:33:54.324Z,1.05
2024-04-24T10:36:24.545Z,1.40
2024-04-24T10:38:57.721Z,1.40
2024-04-24T10:41:29.492Z,0.80
2024-04-24T10:44:00.641Z,0.95
2024-04-24T10:46:30.869Z,1.85
2024-04-24T10:49:03.714Z,1.55
2024-04-24T10:51:34.491Z,1.35
2024-04-24T10:54:02.828Z,0.82
2024-04-24T10:56:39.095Z,1.33
2024-04-24T10:59:10.775Z,1.33
2024-04-24T11:01:47.645Z,1.48
2024-04-24T11:04:27.557Z,1.63
2024-04-24T11:06:57.932Z,1.60
2024-04-24T11:09:28.369Z,1.20
2024-04-24T11:12:00.600Z,1.70
2024-04-24T11:14:31.484Z,1.67
2024-04-24T11:17:02.379Z,1.77
2024-04-24T11:19:36.038Z,1.10
2024-04-24T11:22:06.186Z,1.40
2024-04-24T11:24:39.808Z,1.73
2024-04-24T11:27:11.479Z,2.10
2024-04-24T11:29:42.369Z,1.80
2024-04-24T11:32:12.905Z,1.23
2024-04-24T11:34:46.175Z,0.90
2024-04-24T11:37:16.759Z,1.50
2024-04-24T11:39:47.296Z,1.88
2024-04-24T11:42:17.531Z,1.15
2024-04-24T11:44:47.714Z,0.88
2024-04-24T11:47:20.500Z,1.20
2024-04-24T11:49:56.238Z,0.95
2024-04-24T11:52:27.894Z,1.20
2024-04-24T11:54:55.528Z,0.95
2024-04-24T11:57:26.691Z,1.08
2024-04-24T11:59:58.979Z,1.05
2024-04-24T12:02:30.640Z,1.00
2024-04-24T12:05:06.541Z,1.25
2024-04-24T12:07:36.738Z,0.88
2024-04-24T12:10:08.329Z,1.13
2024-04-24T12:12:38.518Z,1.30
2024-04-24T12:15:06.525Z,1.48
2024-04-24T12:17:36.735Z,1.50
2024-04-24T12:20:09.930Z,1.23
2024-04-24T12:22:40.182Z,1.23
2024-04-24T12:25:10.598Z,1.70
2024-04-24T12:27:41.057Z,1.25
2024-04-24T12:30:11.735Z,1.60
2024-04-24T12:32:41.990Z,1.48
2024-04-24T12:35:14.884Z,0.88
2024-04-24T12:37:45.084Z,1.55
2024-04-24T12:40:15.701Z,0.77
2024-04-24T12:42:45.863Z,0.60
2024-04-24T12:45:16.078Z,0.82
2024-04-24T12:47:46.729Z,1.02
2024-04-24T12:50:19.846Z,0.95
2024-04-24T12:52:50.073Z,0.93
2024-04-24T12:55:20.929Z,1.17
2024-04-24T12:57:51.127Z,0.88
2024-04-24T13:00:21.404Z,0.80
2024-04-24T13:02:52.061Z,1.05
2024-04-24T13:05:25.092Z,0.95
2024-04-24T13:07:55.309Z,1.60
2024-04-24T13:10:25.509Z,1.10
2024-04-24T13:12:55.754Z,1.40
2024-04-24T13:15:25.943Z,0.82
2024-04-24T13:17:56.284Z,1.40
2024-04-24T13:20:29.297Z,1.13
2024-04-24T13:22:59.679Z,0.98
2024-04-24T13:25:29.893Z,1.30
2024-04-24T13:28:00.123Z,1.00
2024-04-24T13:30:30.308Z,1.20
2024-04-24T13:33:00.576Z,1.83
2024-04-24T13:35:33.429Z,1.45
2024-04-24T13:38:03.611Z,1.20
2024-04-24T13:40:34.309Z,2.55
2024-04-24T13:43:04.447Z,1.33
2024-04-24T13:45:34.632Z,0.68
2024-04-24T13:48:02.439Z,0.85
2024-04-24T13:50:35.357Z,0.47
2024-04-24T13:53:07.990Z,0.95
2024-04-24T13:55:38.666Z,1.10
2024-04-24T13:58:08.929Z,0.70
2024-04-24T14:00:39.162Z,1.05
2024-04-24T14:03:09.495Z,1.10
2024-04-24T14:05:45.474Z,1.10
2024-04-24T14:08:15.878Z,1.00
2024-04-24T14:10:46.328Z,1.10
2024-04-24T14:13:16.569Z,1.13
2024-04-24T14:15:46.762Z,1.20
2024-04-24T14:18:16.894Z,1.30
2024-04-24T14:20:49.770Z,1.10
2024-04-24T14:23:19.980Z,1.27
2024-04-24T14:25:50.562Z,1.50
2024-04-24T14:28:20.759Z,1.30
2024-04-24T14:30:51.545Z,1.60
2024-04-24T14:33:21.775Z,1.52
2024-04-24T14:35:54.553Z,1.85
2024-04-24T14:38:25.394Z,1.17
2024-04-24T14:40:56.276Z,1.00
2024-04-24T14:43:26.533Z,0.93
2024-04-24T14:45:56.726Z,1.02
2024-04-24T14:48:27.561Z,1.40
2024-04-24T14:51:00.479Z,1.52
2024-04-24T14:53:30.756Z,0.88
2024-04-24T14:56:01.397Z,0.98
2024-04-24T14:58:31.589Z,1.13
2024-04-24T15:01:05.283Z,1.23
2024-04-24T15:03:35.717Z,1.08
2024-04-24T15:06:08.805Z,1.70
2024-04-24T15:08:38.960Z,1.45
2024-04-24T15:11:09.308Z,1.80
2024-04-24T15:13:41.385Z,1.30
2024-04-24T15:16:13.232Z,1.40
2024-04-24T15:18:43.423Z,1.40
2024-04-24T15:21:16.196Z,1.50
2024-04-24T15:23:48.897Z,1.70
2024-04-24T15:26:21.366Z,1.23
2024-04-24T15:28:51.629Z,1.20
2024-04-24T15:31:21.779Z,1.58
2024-04-24T15:33:53.674Z,1.92
2024-04-24T15:36:26.792Z,1.90
2024-04-24T15:38:56.948Z,2.17
2024-04-24T15:41:27.195Z,1.92
2024-04-24T15:43:57.540Z,1.90
2024-04-24T15:46:27.763Z,1.75
2024-04-24T15:48:57.952Z,2.00
2024-04-24T15:51:30.771Z,1.38
2024-04-24T15:54:00.935Z,1.20
2024-04-24T15:56:31.284Z,1.98
2024-04-24T15:59:01.529Z,1.90
2024-04-24T16:01:32.068Z,2.03
2024-04-24T16:04:02.337Z,1.77
2024-04-24T16:06:35.186Z,2.22
2024-04-24T16:09:05.414Z,1.80
2024-04-24T16:11:35.576Z,1.70
2024-04-24T16:14:06.450Z,1.50
2024-04-24T16:16:36.620Z,1.20
2024-04-24T16:19:08.131Z,1.83
2024-04-24T16:21:41.017Z,1.20
2024-04-24T16:24:12.068Z,1.25
2024-04-24T16:26:42.212Z,1.25
2024-04-24T16:29:12.413Z,1.45
2024-04-24T16:31:42.610Z,0.70
2024-04-24T16:34:12.816Z,1.08
2024-04-24T16:36:45.613Z,0.95
2024-04-24T16:39:15.864Z,1.30
2024-04-24T16:41:48.035Z,1.40
2024-04-24T16:44:18.620Z,1.33
2024-04-24T16:46:48.901Z,1.10
2024-04-24T16:49:19.118Z,1.00
2024-04-24T16:51:51.965Z,1.42
2024-04-24T16:54:22.172Z,1.63
2024-04-24T16:56:52.835Z,1.50
2024-04-24T16:59:23.055Z,2.10
2024-04-24T17:01:53.280Z,1.73
2024-04-24T17:04:23.607Z,1.70
2024-04-24T17:06:56.477Z,1.77
2024-04-24T17:09:26.641Z,1.92
2024-04-24T17:11:57.533Z,0.88
2024-04-24T17:14:28.905Z,1.60
2024-04-24T17:16:59.211Z,1.63
2024-04-24T17:19:29.691Z,1.77
2024-04-24T17:22:02.673Z,1.60
2024-04-24T17:24:32.835Z,1.80
2024-04-24T17:27:03.020Z,1.50
2024-04-24T17:29:33.224Z,2.03
2024-04-24T17:32:03.486Z,1.98
2024-04-24T17:34:33.690Z,1.70
2024-04-24T17:37:06.484Z,2.33
2024-04-24T17:39:36.687Z,2.00
2024-04-24T17:42:06.938Z,1.88
2024-04-24T17:44:37.104Z,1.52
2024-04-24T17:47:08.922Z,1.98
2024-04-24T17:49:39.200Z,1.33
2024-04-24T17:52:12.129Z,0.93
2024-04-24T17:54:42.321Z,1.80
2024-04-24T17:57:12.545Z,1.83
2024-04-24T17:59:42.719Z,1.80
2024-04-24T18:02:12.990Z,1.88
2024-04-24T18:04:43.175Z,1.30
2024-04-24T18:07:15.955Z,1.70
2024-04-24T18:09:46.131Z,2.25
2024-04-24T18:12:16.374Z,2.17
2024-04-24T18:14:46.657Z,1.80
2024-04-24T18:17:17.202Z,1.45
2024-04-24T18:19:47.485Z,1.80
2024-04-24T18:22:20.282Z,1.55
2024-04-24T18:24:50.470Z,2.03
2024-04-24T18:27:20.674Z,2.20
2024-04-24T18:29:50.878Z,2.03
2024-04-24T18:32:21.198Z,1.42
2024-04-24T18:34:51.514Z,1.38
2024-04-24T18:37:24.301Z,1.75
2024-04-24T18:39:54.542Z,1.90
2024-04-24T18:42:24.728Z,1.98
2024-04-24T18:44:54.885Z,2.08
2024-04-24T18:47:26.481Z,1.73
2024-04-24T18:49:58.834Z,2.10
2024-04-24T18:52:31.620Z,2.42
2024-04-24T18:55:01.774Z,2.03
2024-04-24T18:57:32.756Z,2.00
2024-04-24T19:00:03.040Z,2.15
2024-04-24T19:02:33.395Z,1.90
2024-04-24T19:05:03.664Z,1.98
2024-04-24T19:07:36.504Z,1.88
2024-04-24T19:10:06.872Z,1.88
2024-04-24T19:12:37.051Z,1.90
2024-04-24T19:15:07.436Z,1.40
2024-04-24T19:17:38.813Z,1.50
2024-04-24T19:20:09.662Z,1.25
2024-04-24T19:22:43.037Z,1.92
2024-04-24T19:25:13.215Z,1.60
2024-04-24T19:27:43.404Z,2.13
2024-04-24T19:30:13.784Z,1.77
2024-04-24T19:32:44.131Z,1.45
2024-04-24T19:35:14.473Z,2.10
2024-04-24T19:37:47.439Z,1.85
2024-04-24T19:40:17.636Z,1.67
2024-04-24T19:42:48.321Z,1.92
2024-04-24T19:45:18.590Z,1.90
2024-04-24T19:47:48.850Z,1.77
2024-04-24T19:50:19.269Z,2.08
2024-04-24T19:52:52.567Z,1.98
2024-04-24T19:55:22.721Z,2.10
2024-04-24T19:57:52.960Z,1.67
2024-04-24T20:00:23.160Z,1.48
2024-04-24T20:02:53.440Z,2.15
2024-04-24T20:05:23.699Z,1.70
2024-04-24T20:07:53.899Z,1.98
2024-04-24T20:10:24.187Z,1.83
2024-04-24T20:12:54.437Z,1.50
2024-04-24T20:15:24.605Z,1.80
2024-04-24T20:17:54.977Z,1.90
2024-04-24T20:20:25.431Z,1.83
2024-04-24T20:22:58.308Z,1.63
2024-04-24T20:25:28.471Z,2.30
2024-04-24T20:27:58.625Z,2.25
2024-04-24T20:30:29.134Z,2.20
2024-04-24T20:32:59.695Z,2.05
2024-04-24T20:35:31.351Z,1.60
2024-04-24T20:38:05.423Z,1.88
2024-04-24T20:40:35.777Z,1.80
2024-04-24T20:43:05.958Z,1.83
2024-04-24T20:45:36.108Z,1.50
2024-04-24T20:48:06.652Z,1.63
2024-04-24T20:50:36.972Z,2.15
2024-04-24T20:53:09.864Z,1.70
2024-04-24T20:55:40.071Z,2.03
2024-04-24T20:58:10.277Z,1.70
2024-04-24T21:00:40.504Z,1.65
2024-04-24T21:03:10.801Z,2.00
2024-04-24T21:05:43.014Z,2.05
2024-04-24T21:08:15.840Z,1.42
2024-04-24T21:10:46.158Z,1.60
2024-04-24T21:13:17.467Z,1.35
2024-04-24T21:15:47.645Z,0.93
2024-04-24T21:18:17.891Z,1.30
2024-04-24T21:20:48.128Z,0.80
2024-04-24T21:23:20.969Z,0.93
2024-04-24T21:25:51.127Z,0.70
2024-04-24T21:28:21.296Z,0.90
2024-04-24T21:30:52.056Z,0.88
2024-04-24T21:33:22.357Z,0.50
2024-04-24T21:35:52.579Z,0.90
2024-04-24T21:38:25.410Z,0.95
2024-04-24T21:40:55.578Z,1.13
2024-04-24T21:43:27.025Z,1.10
2024-04-24T21:45:57.387Z,1.70
2024-04-24T21:48:27.566Z,1.20
2024-04-24T21:50:57.690Z,1.17
2024-04-24T21:53:30.487Z,1.15
2024-04-24T21:56:00.713Z,0.93
2024-04-24T21:58:30.905Z,0.98
2024-04-24T22:01:01.188Z,1.15
2024-04-24T22:03:33.500Z,1.10
2024-04-24T22:06:04.695Z,1.20
2024-04-24T22:08:39.936Z,1.40
2024-04-24T22:11:10.163Z,1.48
2024-04-24T22:13:40.338Z,1.50
2024-04-24T22:16:12.440Z,0.98
2024-04-24T22:18:42.750Z,1.50
2024-04-24T22:21:13.226Z,1.23
2024-04-24T22:23:46.546Z,1.55
2024-04-24T22:26:16.966Z,1.48
2024-04-24T22:28:47.259Z,2.08
2024-04-24T22:31:17.495Z,1.55
2024-04-24T22:33:47.761Z,1.70
2024-04-24T22:36:17.936Z,1.40
2024-04-24T22:38:50.700Z,1.30
2024-04-24T22:41:20.897Z,1.33
2024-04-24T22:43:51.103Z,1.50
2024-04-24T22:46:21.255Z,1.98
2024-04-24T22:48:51.514Z,1.83
2024-04-24T22:51:21.826Z,1.50
2024-04-24T22:53:54.580Z,1.35
2024-04-24T22:56:24.727Z,1.40
2024-04-24T22:58:54.923Z,1.40
2024-04-24T23:01:25.038Z,1.13
2024-04-24T23:03:55.267Z,1.30
2024-04-24T23:06:25.491Z,1.55
2024-04-24T23:08:58.284Z,1.85
2024-04-24T23:11:28.541Z,1.50
2024-04-24T23:13:58.752Z,1.33
2024-04-24T23:16:28.935Z,1.42
2024-04-24T23:18:59.071Z,1.77
2024-04-24T23:21:29.239Z,1.83
2024-04-24T23:24:01.974Z,1.35
2024-04-24T23:26:32.226Z,1.45
2024-04-24T23:29:02.602Z,1.45
2024-04-24T23:31:32.857Z,1.63
2024-04-24T23:34:03.035Z,1.17
2024-04-24T23:36:33.251Z,1.63
2024-04-24T23:39:06.038Z,1.60
2024-04-24T23:41:36.901Z,1.90
2024-04-24T23:44:07.284Z,1.60
2024-04-24T23:46:38.672Z,1.45
2024-04-24T23:49:08.865Z,1.70
2024-04-24T23:51:39.038Z,1.92
2024-04-24T23:54:11.880Z,1.83
2024-04-24T23:56:42.085Z,1.58
2024-04-24T23:59:14.836Z,2.00
